createdAt,value
2018-07-12T00:00:26.990Z,0
2018-07-12T00:01:35.852Z,0
2018-07-12T00:02:44.714Z,0
2018-07-12T00:03:53.850Z,0
2018-07-12T00:05:02.708Z,0
2018-07-12T00:06:11.667Z,0
2018-07-12T00:07:20.527Z,0
2018-07-12T00:08:29.662Z,0
2018-07-12T00:09:38.521Z,0
2018-07-12T00:10:47.382Z,0
2018-07-12T00:11:56.391Z,0
2018-07-12T00:13:05.252Z,0
2018-07-12T00:14:14.110Z,0
2018-07-12T00:15:22.971Z,0
2018-07-12T00:16:32.109Z,0
2018-07-12T00:17:41.248Z,0
2018-07-12T00:18:50.384Z,0
2018-07-12T00:19:59.247Z,0
2018-07-12T00:21:08.107Z,0
2018-07-12T00:22:16.967Z,0
2018-07-12T00:23:26.103Z,0
2018-07-12T00:24:35.519Z,0
2018-07-12T00:25:44.381Z,0
2018-07-12T00:26:53.243Z,0
2018-07-12T00:28:02.112Z,0
2018-07-12T00:29:11.398Z,0
2018-07-12T00:30:20.260Z,0
2018-07-12T00:31:29.400Z,0
2018-07-12T00:32:38.258Z,0
2018-07-12T00:33:47.518Z,0
2018-07-12T00:34:56.763Z,0
2018-07-12T00:36:05.623Z,0
2018-07-12T00:37:14.484Z,0
2018-07-12T00:38:23.625Z,0
2018-07-12T00:39:32.485Z,0
2018-07-12T00:40:41.495Z,0
2018-07-12T00:41:50.356Z,0
2018-07-12T00:42:59.221Z,0
2018-07-12T00:44:08.079Z,0
2018-07-12T00:45:17.214Z,0
2018-07-12T00:46:26.424Z,0
2018-07-12T00:47:35.281Z,0
2018-07-12T00:48:44.142Z,0
2018-07-12T00:49:53.002Z,0
2018-07-12T00:51:01.861Z,0
2018-07-12T00:52:10.871Z,0
2018-07-12T00:53:19.731Z,0
2018-07-12T00:54:28.865Z,0
2018-07-12T00:55:37.722Z,0
2018-07-12T00:56:46.636Z,0
2018-07-12T00:57:55.877Z,0
2018-07-12T00:59:04.737Z,0
2018-07-12T01:00:13.597Z,0
2018-07-12T01:01:22.459Z,0
2018-07-12T01:02:31.320Z,0
2018-07-12T01:03:40.181Z,0
2018-07-12T01:04:49.043Z,0
2018-07-12T01:05:57.902Z,0
2018-07-12T01:07:06.760Z,0
2018-07-12T01:08:15.618Z,0
2018-07-12T01:09:24.629Z,0
2018-07-12T01:10:33.490Z,0
2018-07-12T01:11:42.348Z,0
2018-07-12T01:12:51.208Z,0
2018-07-12T01:14:00.345Z,0
2018-07-12T01:15:09.206Z,0
2018-07-12T01:16:18.065Z,0
2018-07-12T01:17:26.922Z,0
2018-07-12T01:18:36.337Z,0
2018-07-12T01:19:45.197Z,0
2018-07-12T01:20:54.334Z,0
2018-07-12T01:22:03.197Z,0
2018-07-12T01:23:12.627Z,0
2018-07-12T01:24:21.758Z,0
2018-07-12T01:25:30.619Z,0
2018-07-12T01:26:39.479Z,0
2018-07-12T01:27:48.630Z,0
2018-07-12T01:28:57.483Z,0
2018-07-12T01:30:06.342Z,0
2018-07-12T01:31:15.201Z,0
2018-07-12T01:32:24.337Z,0
2018-07-12T01:33:33.194Z,0
2018-07-12T01:34:42.328Z,0
2018-07-12T01:35:51.471Z,0
2018-07-12T01:37:00.333Z,0
2018-07-12T01:38:09.190Z,0
2018-07-12T01:39:18.334Z,0
2018-07-12T01:40:27.190Z,0
2018-07-12T01:41:36.051Z,0
2018-07-12T01:42:44.913Z,0
2018-07-12T01:43:53.920Z,0
2018-07-12T01:45:03.052Z,0
2018-07-12T01:46:12.193Z,0
2018-07-12T01:47:21.333Z,0
2018-07-12T01:48:30.192Z,0
2018-07-12T01:49:39.329Z,0
2018-07-12T01:50:48.188Z,0
2018-07-12T01:51:57.599Z,0
2018-07-12T01:53:06.462Z,0
2018-07-12T01:54:15.322Z,0
2018-07-12T01:55:24.284Z,0
2018-07-12T01:56:33.142Z,0
2018-07-12T01:57:42.003Z,0
2018-07-12T01:58:51.144Z,0
2018-07-12T02:00:00.008Z,0
2018-07-12T02:01:08.861Z,0
2018-07-12T02:02:17.720Z,0
2018-07-12T02:03:26.864Z,0
2018-07-12T02:04:36.276Z,0
2018-07-12T02:05:45.417Z,0
2018-07-12T02:06:54.427Z,0
2018-07-12T02:08:03.564Z,0
2018-07-12T02:09:12.426Z,0
2018-07-12T02:10:21.284Z,0
2018-07-12T02:11:30.144Z,0
2018-07-12T02:12:39.103Z,0
2018-07-12T02:13:47.969Z,0
2018-07-12T02:14:56.822Z,0
2018-07-12T02:16:05.958Z,0
2018-07-12T02:17:14.816Z,0
2018-07-12T02:18:24.027Z,0
2018-07-12T02:19:32.885Z,0
2018-07-12T02:20:41.746Z,0
2018-07-12T02:21:50.603Z,0
2018-07-12T02:22:59.461Z,0
2018-07-12T02:24:08.321Z,0
2018-07-12T02:25:17.179Z,0
2018-07-12T02:26:26.045Z,0
2018-07-12T02:27:34.971Z,0
2018-07-12T02:28:43.772Z,0
2018-07-12T02:29:52.781Z,0
2018-07-12T02:31:01.918Z,0
2018-07-12T02:32:11.063Z,0
2018-07-12T02:33:20.207Z,0
2018-07-12T02:34:29.337Z,0
2018-07-12T02:35:38.578Z,0
2018-07-12T02:36:47.716Z,0
2018-07-12T02:37:56.860Z,0
2018-07-12T02:39:06.281Z,0
2018-07-12T02:40:15.150Z,0
2018-07-12T02:41:24.388Z,0
2018-07-12T02:42:33.532Z,0
2018-07-12T02:43:42.945Z,0
2018-07-12T02:44:52.369Z,0
2018-07-12T02:46:01.781Z,0
2018-07-12T02:47:11.553Z,0
2018-07-12T02:48:20.967Z,0
2018-07-12T02:49:30.379Z,0
2018-07-12T02:50:39.240Z,0
2018-07-12T02:51:48.386Z,0
2018-07-12T02:52:57.349Z,0
2018-07-12T02:54:07.058Z,0
2018-07-12T02:55:16.479Z,0
2018-07-12T02:56:25.897Z,0
2018-07-12T02:57:34.756Z,0
2018-07-12T02:58:43.615Z,0
2018-07-12T02:59:52.475Z,0
2018-07-12T03:01:01.616Z,0
2018-07-12T03:02:10.480Z,0
2018-07-12T03:03:19.629Z,0
2018-07-12T03:04:29.064Z,0
2018-07-12T03:05:38.205Z,0
2018-07-12T03:06:47.074Z,0
2018-07-12T03:07:56.210Z,5
2018-07-12T03:09:06.222Z,5
2018-07-12T03:10:15.459Z,5
2018-07-12T03:11:24.601Z,5
2018-07-12T03:12:34.022Z,5
2018-07-12T03:13:43.155Z,5
2018-07-12T03:14:52.015Z,5
2018-07-12T03:16:01.150Z,5
2018-07-12T03:17:10.021Z,10
2018-07-12T03:18:18.879Z,10
2018-07-12T03:19:28.021Z,10
2018-07-12T03:20:36.886Z,10
2018-07-12T03:21:46.174Z,10
2018-07-12T03:22:55.320Z,10
2018-07-12T03:24:04.458Z,15
2018-07-12T03:25:13.320Z,15
2018-07-12T03:26:22.461Z,15
2018-07-12T03:27:31.323Z,15
2018-07-12T03:28:40.179Z,15
2018-07-12T03:29:49.042Z,15
2018-07-12T03:30:58.190Z,20
2018-07-12T03:32:07.609Z,20
2018-07-12T03:33:16.623Z,20
2018-07-12T03:34:25.483Z,20
2018-07-12T03:35:34.344Z,20
2018-07-12T03:36:43.202Z,25
2018-07-12T03:37:52.336Z,25
2018-07-12T03:39:01.195Z,25
2018-07-12T03:40:10.060Z,25
2018-07-12T03:41:18.920Z,30
2018-07-12T03:42:27.777Z,30
2018-07-12T03:43:36.636Z,30
2018-07-12T03:44:46.054Z,35
2018-07-12T03:45:54.910Z,35
2018-07-12T03:47:03.770Z,35
2018-07-12T03:48:12.630Z,35
2018-07-12T03:49:21.771Z,35
2018-07-12T03:50:31.282Z,40
2018-07-12T03:51:40.143Z,40
2018-07-12T03:52:49.001Z,40
2018-07-12T03:53:57.861Z,40
2018-07-12T03:55:06.721Z,45
2018-07-12T03:56:15.581Z,45
2018-07-12T03:57:24.719Z,45
2018-07-12T03:58:33.855Z,45
2018-07-12T03:59:42.716Z,50
2018-07-12T04:00:51.849Z,50
2018-07-12T04:02:00.859Z,50
2018-07-12T04:03:09.718Z,55
2018-07-12T04:04:18.574Z,55
2018-07-12T04:05:27.435Z,60
2018-07-12T04:06:36.293Z,60
2018-07-12T04:07:45.854Z,60
2018-07-12T04:08:54.713Z,65
2018-07-12T04:10:03.570Z,65
2018-07-12T04:11:12.428Z,65
2018-07-12T04:12:21.286Z,70
2018-07-12T04:13:30.774Z,70
2018-07-12T04:14:39.633Z,70
2018-07-12T04:15:48.492Z,75
2018-07-12T04:16:57.351Z,75
2018-07-12T04:18:06.217Z,75
2018-07-12T04:19:15.230Z,80
2018-07-12T04:20:24.085Z,80
2018-07-12T04:21:32.944Z,80
2018-07-12T04:22:41.808Z,80
2018-07-12T04:23:50.666Z,80
2018-07-12T04:24:59.525Z,85
2018-07-12T04:26:08.387Z,85
2018-07-12T04:27:17.531Z,90
2018-07-12T04:28:26.394Z,90
2018-07-12T04:29:35.533Z,90
2018-07-12T04:30:44.543Z,90
2018-07-12T04:31:53.674Z,90
2018-07-12T04:33:02.536Z,95
2018-07-12T04:34:11.673Z,95
2018-07-12T04:35:20.811Z,95
2018-07-12T04:36:30.022Z,100
2018-07-12T04:37:39.206Z,100
2018-07-12T04:38:48.350Z,105
2018-07-12T04:39:57.205Z,110
2018-07-12T04:41:06.064Z,105
2018-07-12T04:42:14.926Z,110
2018-07-12T04:43:24.110Z,110
2018-07-12T04:44:32.971Z,115
2018-07-12T04:45:41.828Z,115
2018-07-12T04:46:50.689Z,120
2018-07-12T04:48:00.254Z,115
2018-07-12T04:49:09.389Z,115
2018-07-12T04:50:18.532Z,115
2018-07-12T04:51:27.669Z,115
2018-07-12T04:52:36.820Z,120
2018-07-12T04:53:46.109Z,120
2018-07-12T04:54:54.971Z,125
2018-07-12T04:56:03.827Z,120
2018-07-12T04:57:12.965Z,125
2018-07-12T04:58:22.111Z,125
2018-07-12T04:59:31.116Z,125
2018-07-12T05:00:39.978Z,130
2018-07-12T05:01:49.111Z,130
2018-07-12T05:02:58.249Z,130
2018-07-12T05:04:07.383Z,130
2018-07-12T05:05:16.520Z,135
2018-07-12T05:06:25.384Z,135
2018-07-12T05:07:34.241Z,130
2018-07-12T05:08:43.101Z,135
2018-07-12T05:09:51.958Z,130
2018-07-12T05:11:01.104Z,130
2018-07-12T05:12:10.245Z,130
2018-07-12T05:13:19.381Z,130
2018-07-12T05:14:28.242Z,130
2018-07-12T05:15:37.102Z,135
2018-07-12T05:16:46.388Z,135
2018-07-12T05:17:55.248Z,140
2018-07-12T05:19:04.107Z,140
2018-07-12T05:20:13.253Z,140
2018-07-12T05:21:22.112Z,140
2018-07-12T05:22:31.129Z,145
2018-07-12T05:23:39.987Z,140
2018-07-12T05:24:48.856Z,145
2018-07-12T05:25:57.998Z,145
2018-07-12T05:27:07.135Z,145
2018-07-12T05:28:16.351Z,150
2018-07-12T05:29:25.214Z,155
2018-07-12T05:30:34.072Z,150
2018-07-12T05:31:42.934Z,155
2018-07-12T05:32:51.793Z,155
2018-07-12T05:34:01.081Z,160
2018-07-12T05:35:09.940Z,165
2018-07-12T05:36:18.803Z,160
2018-07-12T05:37:27.662Z,160
2018-07-12T05:38:36.802Z,160
2018-07-12T05:39:45.939Z,160
2018-07-12T05:40:54.802Z,160
2018-07-12T05:42:03.661Z,160
2018-07-12T05:43:12.522Z,160
2018-07-12T05:44:21.381Z,160
2018-07-12T05:45:30.242Z,160
2018-07-12T05:46:39.109Z,160
2018-07-12T05:47:47.964Z,160
2018-07-12T05:48:57.152Z,160
2018-07-12T05:50:06.013Z,165
2018-07-12T05:51:15.024Z,160
2018-07-12T05:52:24.179Z,160
2018-07-12T05:53:33.039Z,165
2018-07-12T05:54:41.900Z,165
2018-07-12T05:55:50.760Z,165
2018-07-12T05:56:59.620Z,165
2018-07-12T05:58:08.479Z,165
2018-07-12T05:59:17.337Z,170
2018-07-12T06:00:26.761Z,165
2018-07-12T06:01:35.956Z,165
2018-07-12T06:02:44.836Z,165
2018-07-12T06:03:53.976Z,165
2018-07-12T06:05:02.837Z,165
2018-07-12T06:06:11.701Z,165
2018-07-12T06:07:20.564Z,170
2018-07-12T06:08:29.576Z,170
2018-07-12T06:09:38.440Z,165
2018-07-12T06:10:47.300Z,165
2018-07-12T06:11:56.163Z,165
2018-07-12T06:13:05.055Z,165
2018-07-12T06:14:14.201Z,165
2018-07-12T06:15:23.059Z,165
2018-07-12T06:16:32.201Z,165
2018-07-12T06:17:41.063Z,165
2018-07-12T06:18:50.267Z,165
2018-07-12T06:19:59.264Z,165
2018-07-12T06:21:08.402Z,165
2018-07-12T06:22:17.263Z,165
2018-07-12T06:23:26.403Z,165
2018-07-12T06:24:35.859Z,170
2018-07-12T06:25:44.806Z,170
2018-07-12T06:26:53.947Z,170
2018-07-12T06:28:02.812Z,170
2018-07-12T06:29:11.670Z,170
2018-07-12T06:30:20.528Z,170
2018-07-12T06:31:29.813Z,170
2018-07-12T06:32:38.674Z,170
2018-07-12T06:33:48.096Z,170
2018-07-12T06:34:56.960Z,170
2018-07-12T06:36:06.098Z,165
2018-07-12T06:37:15.678Z,165
2018-07-12T06:38:24.419Z,165
2018-07-12T06:39:33.280Z,165
2018-07-12T06:40:42.141Z,165
2018-07-12T06:41:51.002Z,170
2018-07-12T06:42:59.864Z,170
2018-07-12T06:44:08.728Z,170
2018-07-12T06:45:17.590Z,170
2018-07-12T06:46:27.001Z,170
2018-07-12T06:47:35.861Z,170
2018-07-12T06:48:44.725Z,170
2018-07-12T06:49:53.589Z,170
2018-07-12T06:51:02.449Z,170
2018-07-12T06:52:11.309Z,175
2018-07-12T06:53:20.169Z,175
2018-07-12T06:54:29.030Z,175
2018-07-12T06:55:38.167Z,175
2018-07-12T06:56:47.028Z,175
2018-07-12T06:57:55.896Z,175
2018-07-12T06:59:05.033Z,175
2018-07-12T07:00:14.173Z,170
2018-07-12T07:01:23.033Z,170
2018-07-12T07:02:31.898Z,170
2018-07-12T07:03:40.758Z,170
2018-07-12T07:04:49.619Z,175
2018-07-12T07:05:58.652Z,175
2018-07-12T07:07:07.791Z,170
2018-07-12T07:08:16.657Z,175
2018-07-12T07:09:25.515Z,175
2018-07-12T07:10:34.373Z,175
2018-07-12T07:11:43.584Z,175
2018-07-12T07:12:52.719Z,175
2018-07-12T07:14:01.581Z,175
2018-07-12T07:15:10.442Z,175
2018-07-12T07:16:19.303Z,175
2018-07-12T07:17:28.268Z,175
2018-07-12T07:18:37.399Z,175
2018-07-12T07:19:46.262Z,175
2018-07-12T07:20:55.123Z,175
2018-07-12T07:22:04.265Z,180
2018-07-12T07:23:13.281Z,180
2018-07-12T07:24:22.415Z,175
2018-07-12T07:25:31.280Z,175
2018-07-12T07:26:40.139Z,175
2018-07-12T07:27:49.003Z,180
2018-07-12T07:28:57.865Z,180
2018-07-12T07:30:07.285Z,180
2018-07-12T07:31:16.147Z,180
2018-07-12T07:32:25.015Z,180
2018-07-12T07:33:33.871Z,180
2018-07-12T07:34:42.731Z,180
2018-07-12T07:35:51.596Z,180
2018-07-12T07:37:00.457Z,180
2018-07-12T07:38:09.593Z,180
2018-07-12T07:39:18.461Z,180
2018-07-12T07:40:27.322Z,180
2018-07-12T07:41:36.185Z,180
2018-07-12T07:42:45.060Z,180
2018-07-12T07:43:53.908Z,180
2018-07-12T07:45:02.769Z,180
2018-07-12T07:46:11.787Z,185
2018-07-12T07:47:20.648Z,185
2018-07-12T07:48:29.509Z,185
2018-07-12T07:49:38.369Z,185
2018-07-12T07:50:47.513Z,185
2018-07-12T07:51:56.476Z,185
2018-07-12T07:53:05.340Z,185
2018-07-12T07:54:14.481Z,185
2018-07-12T07:55:23.346Z,185
2018-07-12T07:56:32.209Z,185
2018-07-12T07:57:41.071Z,185
2018-07-12T07:58:49.932Z,185
2018-07-12T07:59:58.800Z,185
2018-07-12T08:01:07.961Z,185
2018-07-12T08:02:16.822Z,185
2018-07-12T08:03:26.423Z,185
2018-07-12T08:04:35.577Z,185
2018-07-12T08:05:44.441Z,185
2018-07-12T08:06:53.301Z,185
2018-07-12T08:08:02.165Z,185
2018-07-12T08:09:11.462Z,185
2018-07-12T08:10:20.606Z,185
2018-07-12T08:11:29.467Z,185
2018-07-12T08:12:38.327Z,185
2018-07-12T08:13:47.473Z,185
2018-07-12T08:14:56.483Z,185
2018-07-12T08:16:05.345Z,185
2018-07-12T08:17:14.206Z,190
2018-07-12T08:18:23.069Z,190
2018-07-12T08:19:32.224Z,185
2018-07-12T08:20:41.236Z,185
2018-07-12T08:21:50.101Z,185
2018-07-12T08:22:58.967Z,185
2018-07-12T08:24:07.830Z,185
2018-07-12T08:25:16.700Z,190
2018-07-12T08:26:25.709Z,190
2018-07-12T08:27:34.574Z,190
2018-07-12T08:28:43.432Z,190
2018-07-12T08:29:52.680Z,190
2018-07-12T08:31:01.483Z,195
2018-07-12T08:32:10.623Z,195
2018-07-12T08:33:19.488Z,195
2018-07-12T08:34:28.345Z,195
2018-07-12T08:35:37.210Z,195
2018-07-12T08:36:46.072Z,195
2018-07-12T08:37:54.941Z,195
2018-07-12T08:39:04.091Z,195
2018-07-12T08:40:13.230Z,195
2018-07-12T08:41:22.094Z,195
2018-07-12T08:42:30.990Z,200
2018-07-12T08:43:39.873Z,200
2018-07-12T08:44:48.736Z,200
2018-07-12T08:45:57.600Z,200
2018-07-12T08:47:06.741Z,205
2018-07-12T08:48:15.634Z,210
2018-07-12T08:49:24.614Z,210
2018-07-12T08:50:33.478Z,210
2018-07-12T08:51:42.338Z,210
2018-07-12T08:52:51.199Z,205
2018-07-12T08:54:00.065Z,205
2018-07-12T08:55:09.079Z,210
2018-07-12T08:56:17.945Z,210
2018-07-12T08:57:26.808Z,210
2018-07-12T08:58:36.020Z,215
2018-07-12T08:59:44.886Z,215
2018-07-12T09:00:54.029Z,230
2018-07-12T09:02:02.891Z,235
2018-07-12T09:03:12.238Z,220
2018-07-12T09:04:21.097Z,220
2018-07-12T09:05:29.966Z,220
2018-07-12T09:06:39.212Z,225
2018-07-12T09:07:48.069Z,230
2018-07-12T09:08:56.932Z,235
2018-07-12T09:10:05.799Z,270
2018-07-12T09:11:14.664Z,290
2018-07-12T09:12:23.628Z,280
2018-07-12T09:13:32.768Z,280
2018-07-12T09:14:41.631Z,280
2018-07-12T09:15:50.579Z,290
2018-07-12T09:16:59.361Z,300
2018-07-12T09:18:08.480Z,315
2018-07-12T09:19:17.345Z,330
2018-07-12T09:20:26.207Z,355
2018-07-12T09:21:35.114Z,400
2018-07-12T09:22:43.936Z,420
2018-07-12T09:23:53.354Z,425
2018-07-12T09:25:02.218Z,415
2018-07-12T09:26:11.087Z,425
2018-07-12T09:27:20.226Z,405
2018-07-12T09:28:29.368Z,400
2018-07-12T09:29:38.581Z,385
2018-07-12T09:30:47.739Z,415
2018-07-12T09:31:56.593Z,390
2018-07-12T09:33:05.746Z,320
2018-07-12T09:34:14.609Z,315
2018-07-12T09:35:23.899Z,335
2018-07-12T09:36:32.764Z,320
2018-07-12T09:37:41.630Z,345
2018-07-12T09:38:50.502Z,350
2018-07-12T09:39:59.368Z,340
2018-07-12T09:41:09.146Z,295
2018-07-12T09:42:18.014Z,345
2018-07-12T09:43:26.878Z,320
2018-07-12T09:44:36.025Z,325
2018-07-12T09:45:44.889Z,325
2018-07-12T09:46:53.908Z,340
2018-07-12T09:48:03.051Z,395
2018-07-12T09:49:11.941Z,405
2018-07-12T09:50:20.795Z,420
2018-07-12T09:51:29.658Z,415
2018-07-12T09:52:38.531Z,410
2018-07-12T09:53:47.957Z,370
2018-07-12T09:54:57.100Z,330
2018-07-12T09:56:07.100Z,300
2018-07-12T09:57:15.860Z,300
2018-07-12T09:58:24.828Z,320
2018-07-12T09:59:33.694Z,355
2018-07-12T10:00:42.557Z,365
2018-07-12T10:01:51.700Z,410
2018-07-12T10:03:00.565Z,465
2018-07-12T10:04:09.433Z,555
2018-07-12T10:05:18.579Z,560
2018-07-12T10:06:27.733Z,530
2018-07-12T10:07:36.594Z,500
2018-07-12T10:08:45.459Z,490
2018-07-12T10:09:54.599Z,475
2018-07-12T10:11:03.745Z,465
2018-07-12T10:12:12.612Z,455
2018-07-12T10:13:21.475Z,400
2018-07-12T10:14:30.336Z,445
2018-07-12T10:15:39.475Z,480
2018-07-12T10:16:48.339Z,490
2018-07-12T10:17:57.206Z,520
2018-07-12T10:19:06.073Z,550
2018-07-12T10:20:14.940Z,585
2018-07-12T10:21:23.808Z,620
2018-07-12T10:22:32.674Z,625
2018-07-12T10:23:41.538Z,610
2018-07-12T10:24:50.682Z,580
2018-07-12T10:25:59.548Z,500
2018-07-12T10:27:08.414Z,425
2018-07-12T10:28:17.564Z,355
2018-07-12T10:29:26.714Z,355
2018-07-12T10:30:35.580Z,400
2018-07-12T10:31:45.003Z,375
2018-07-12T10:32:54.243Z,410
2018-07-12T10:34:03.108Z,445
2018-07-12T10:35:12.249Z,495
2018-07-12T10:36:21.113Z,570
2018-07-12T10:37:29.978Z,665
2018-07-12T10:38:39.002Z,770
2018-07-12T10:39:47.867Z,785
2018-07-12T10:40:56.733Z,765
2018-07-12T10:42:05.598Z,690
2018-07-12T10:43:14.757Z,680
2018-07-12T10:44:23.659Z,615
2018-07-12T10:45:32.768Z,545
2018-07-12T10:46:41.910Z,515
2018-07-12T10:47:51.062Z,565
2018-07-12T10:48:59.934Z,635
2018-07-12T10:50:08.800Z,700
2018-07-12T10:51:17.667Z,695
2018-07-12T10:52:26.532Z,690
2018-07-12T10:53:35.674Z,710
2018-07-12T10:54:44.541Z,735
2018-07-12T10:55:53.405Z,730
2018-07-12T10:57:02.271Z,680
2018-07-12T10:58:11.139Z,655
2018-07-12T10:59:20.289Z,645
2018-07-12T11:00:29.156Z,650
2018-07-12T11:01:38.125Z,655
2018-07-12T11:02:47.544Z,660
2018-07-12T11:03:56.410Z,635
2018-07-12T11:05:05.554Z,585
2018-07-12T11:06:14.979Z,495
2018-07-12T11:07:23.949Z,430
2018-07-12T11:08:32.815Z,395
2018-07-12T11:09:41.682Z,395
2018-07-12T11:10:50.831Z,425
2018-07-12T11:11:59.698Z,510
2018-07-12T11:13:08.923Z,585
2018-07-12T11:14:18.073Z,655
2018-07-12T11:15:27.490Z,770
2018-07-12T11:16:36.356Z,855
2018-07-12T11:17:45.221Z,900
2018-07-12T11:18:54.443Z,890
2018-07-12T11:20:03.314Z,815
2018-07-12T11:21:12.620Z,850
2018-07-12T11:22:21.682Z,820
2018-07-12T11:23:30.550Z,725
2018-07-12T11:24:39.421Z,535
2018-07-12T11:25:48.290Z,485
2018-07-12T11:26:57.437Z,470
2018-07-12T11:28:06.335Z,470
2018-07-12T11:29:15.171Z,475
2018-07-12T11:30:24.070Z,470
2018-07-12T11:31:33.461Z,460
2018-07-12T11:32:42.329Z,450
2018-07-12T11:33:51.198Z,440
2018-07-12T11:35:00.341Z,425
2018-07-12T11:36:09.209Z,410
2018-07-12T11:37:18.543Z,400
2018-07-12T11:38:27.414Z,395
2018-07-12T11:39:36.558Z,395
2018-07-12T11:40:45.702Z,395
2018-07-12T11:41:54.920Z,395
2018-07-12T11:43:03.785Z,380
2018-07-12T11:44:12.650Z,380
2018-07-12T11:45:21.520Z,385
2018-07-12T11:46:30.388Z,395
2018-07-12T11:47:39.258Z,405
2018-07-12T11:48:48.123Z,425
2018-07-12T11:49:56.989Z,445
2018-07-12T11:51:05.859Z,465
2018-07-12T11:52:14.726Z,505
2018-07-12T11:53:23.942Z,545
2018-07-12T11:54:32.809Z,545
2018-07-12T11:55:41.676Z,565
2018-07-12T11:56:50.541Z,530
2018-07-12T11:57:59.682Z,540
2018-07-12T11:59:08.547Z,775
2018-07-12T12:00:17.686Z,2360
2018-07-12T12:01:27.096Z,3265
2018-07-12T12:02:36.082Z,3135
2018-07-12T12:03:45.012Z,3135
2018-07-12T12:04:53.871Z,3510
2018-07-12T12:06:02.741Z,3525
2018-07-12T12:07:11.896Z,3210
2018-07-12T12:08:20.770Z,3630
2018-07-12T12:09:29.920Z,3620
2018-07-12T12:10:39.342Z,3270
2018-07-12T12:11:48.395Z,3590
2018-07-12T12:12:57.742Z,3625
2018-07-12T12:14:06.954Z,2495
2018-07-12T12:15:15.827Z,2485
2018-07-12T12:16:24.698Z,3625
2018-07-12T12:17:33.570Z,3420
2018-07-12T12:18:42.439Z,2945
2018-07-12T12:19:51.314Z,3520
2018-07-12T12:21:00.182Z,2545
2018-07-12T12:22:09.336Z,3645
2018-07-12T12:23:18.483Z,3365
2018-07-12T12:24:27.355Z,3240
2018-07-12T12:25:36.231Z,3385
2018-07-12T12:26:45.106Z,3375
2018-07-12T12:27:53.979Z,3465
2018-07-12T12:29:02.853Z,3745
2018-07-12T12:30:11.726Z,3840
2018-07-12T12:31:20.877Z,3180
2018-07-12T12:32:29.751Z,3700
2018-07-12T12:33:39.098Z,2830
2018-07-12T12:34:47.942Z,835
2018-07-12T12:35:56.819Z,610
2018-07-12T12:37:05.695Z,575
2018-07-12T12:38:14.845Z,590
2018-07-12T12:39:23.821Z,585
2018-07-12T12:40:32.967Z,580
2018-07-12T12:41:41.840Z,585
2018-07-12T12:42:50.710Z,600
2018-07-12T12:43:59.584Z,615
2018-07-12T12:45:08.459Z,645
2018-07-12T12:46:17.326Z,715
2018-07-12T12:47:26.199Z,765
2018-07-12T12:48:35.346Z,920
2018-07-12T12:49:44.502Z,1510
2018-07-12T12:50:53.702Z,3215
2018-07-12T12:52:02.562Z,3630
2018-07-12T12:53:11.433Z,3635
2018-07-12T12:54:20.303Z,3490
2018-07-12T12:55:29.176Z,2740
2018-07-12T12:56:38.149Z,1815
2018-07-12T12:57:47.019Z,1105
2018-07-12T12:58:56.186Z,810
2018-07-12T13:00:05.368Z,890
2018-07-12T13:01:14.222Z,800
2018-07-12T13:02:23.095Z,760
2018-07-12T13:03:31.968Z,780
2018-07-12T13:04:40.842Z,805
2018-07-12T13:05:49.719Z,3225
2018-07-12T13:06:58.585Z,3105
2018-07-12T13:08:07.982Z,330
2018-07-12T13:09:17.195Z,280
2018-07-12T13:10:26.068Z,260
2018-07-12T13:11:34.939Z,260
2018-07-12T13:12:43.812Z,275
2018-07-12T13:13:52.681Z,295
2018-07-12T13:15:01.568Z,335
2018-07-12T13:16:10.718Z,380
2018-07-12T13:17:19.583Z,450
2018-07-12T13:18:28.730Z,550
2018-07-12T13:19:37.596Z,625
2018-07-12T13:20:47.017Z,825
2018-07-12T13:21:55.888Z,3525
2018-07-12T13:23:04.757Z,3580
2018-07-12T13:24:13.630Z,3675
2018-07-12T13:25:22.818Z,3680
2018-07-12T13:26:31.657Z,3745
2018-07-12T13:27:41.192Z,3730
2018-07-12T13:28:50.632Z,3415
2018-07-12T13:29:59.507Z,3650
2018-07-12T13:31:08.579Z,3610
2018-07-12T13:32:17.733Z,3655
2018-07-12T13:33:26.607Z,3820
2018-07-12T13:34:35.487Z,3775
2018-07-12T13:35:44.648Z,3775
2018-07-12T13:36:53.523Z,3735
2018-07-12T13:38:02.399Z,3720
2018-07-12T13:39:11.276Z,2465
2018-07-12T13:40:20.153Z,620
2018-07-12T13:41:29.307Z,620
2018-07-12T13:42:38.186Z,680
2018-07-12T13:43:47.061Z,860
2018-07-12T13:44:55.937Z,3470
2018-07-12T13:46:04.812Z,865
2018-07-12T13:47:13.965Z,845
2018-07-12T13:48:22.996Z,810
2018-07-12T13:49:31.866Z,670
2018-07-12T13:50:41.021Z,600
2018-07-12T13:51:49.891Z,595
2018-07-12T13:52:59.044Z,2645
2018-07-12T13:54:07.915Z,3545
2018-07-12T13:55:16.790Z,575
2018-07-12T13:56:25.665Z,535
2018-07-12T13:57:34.539Z,505
2018-07-12T13:58:43.869Z,485
2018-07-12T13:59:52.718Z,495
2018-07-12T14:01:01.881Z,520
2018-07-12T14:02:11.030Z,565
2018-07-12T14:03:20.178Z,665
2018-07-12T14:04:29.050Z,3790
2018-07-12T14:05:38.361Z,3550
2018-07-12T14:06:47.232Z,3610
2018-07-12T14:07:56.106Z,3590
2018-07-12T14:09:04.978Z,3560
2018-07-12T14:10:14.128Z,3370
2018-07-12T14:11:23.004Z,3455
2018-07-12T14:12:31.874Z,4215
2018-07-12T14:13:41.027Z,3685
2018-07-12T14:14:49.900Z,3790
2018-07-12T14:15:58.776Z,3725
2018-07-12T14:17:07.649Z,3740
2018-07-12T14:18:16.530Z,3465
2018-07-12T14:19:25.401Z,2430
2018-07-12T14:20:34.279Z,1635
2018-07-12T14:21:43.157Z,3610
2018-07-12T14:22:52.036Z,955
2018-07-12T14:24:01.189Z,925
2018-07-12T14:25:10.067Z,3680
2018-07-12T14:26:18.946Z,3600
2018-07-12T14:27:28.380Z,2830
2018-07-12T14:28:37.253Z,2770
2018-07-12T14:29:46.126Z,3690
2018-07-12T14:30:55.005Z,3265
2018-07-12T14:32:03.886Z,3335
2018-07-12T14:33:12.761Z,3810
2018-07-12T14:34:21.740Z,3500
2018-07-12T14:35:30.893Z,3400
2018-07-12T14:36:39.775Z,3530
2018-07-12T14:37:48.648Z,3600
2018-07-12T14:38:57.525Z,3610
2018-07-12T14:40:06.756Z,3640
2018-07-12T14:41:15.636Z,3810
2018-07-12T14:42:24.521Z,3595
2018-07-12T14:43:33.399Z,3440
2018-07-12T14:44:42.280Z,3430
2018-07-12T14:45:51.585Z,3485
2018-07-12T14:47:00.518Z,3510
2018-07-12T14:48:09.344Z,3475
2018-07-12T14:49:18.222Z,3465
2018-07-12T14:50:27.103Z,3515
2018-07-12T14:51:35.982Z,3360
2018-07-12T14:52:44.863Z,3185
2018-07-12T14:53:54.297Z,3525
2018-07-12T14:55:03.177Z,3590
2018-07-12T14:56:12.337Z,3505
2018-07-12T14:57:21.654Z,3570
2018-07-12T14:58:30.530Z,3650
2018-07-12T14:59:39.688Z,3590
2018-07-12T15:00:48.579Z,3500
2018-07-12T15:01:57.460Z,3675
2018-07-12T15:03:06.339Z,3710
2018-07-12T15:04:15.222Z,3620
2018-07-12T15:05:24.104Z,3400
2018-07-12T15:06:32.984Z,3310
2018-07-12T15:07:41.862Z,3385
2018-07-12T15:08:50.996Z,2870
2018-07-12T15:09:59.779Z,3145
2018-07-12T15:11:08.937Z,3260
2018-07-12T15:12:18.092Z,3270
2018-07-12T15:13:26.974Z,3410
2018-07-12T15:14:36.001Z,3335
2018-07-12T15:15:44.888Z,3390
2018-07-12T15:16:54.193Z,3355
2018-07-12T15:18:02.992Z,3100
2018-07-12T15:19:11.904Z,3290
2018-07-12T15:20:21.387Z,3210
2018-07-12T15:21:30.267Z,3145
2018-07-12T15:22:39.147Z,3285
2018-07-12T15:23:48.027Z,3145
2018-07-12T15:24:56.909Z,3340
2018-07-12T15:26:06.556Z,3115
2018-07-12T15:27:15.377Z,3170
2018-07-12T15:28:24.243Z,3075
2018-07-12T15:29:33.577Z,3070
2018-07-12T15:30:42.740Z,3075
2018-07-12T15:31:51.971Z,2990
2018-07-12T15:33:00.853Z,3205
2018-07-12T15:34:10.023Z,3110
2018-07-12T15:35:18.908Z,3090
2018-07-12T15:36:27.786Z,2975
2018-07-12T15:37:37.094Z,2985
2018-07-12T15:38:45.969Z,3075
2018-07-12T15:39:54.855Z,2865
2018-07-12T15:41:03.732Z,2800
2018-07-12T15:42:12.613Z,2825
2018-07-12T15:43:21.770Z,2850
2018-07-12T15:44:30.929Z,2855
2018-07-12T15:45:39.807Z,2860
2018-07-12T15:46:48.687Z,2775
2018-07-12T15:47:57.567Z,2775
2018-07-12T15:49:07.007Z,2775
2018-07-12T15:50:16.244Z,2845
2018-07-12T15:51:25.091Z,2695
2018-07-12T15:52:34.443Z,2775
2018-07-12T15:53:43.713Z,2775
2018-07-12T15:54:52.746Z,2715
2018-07-12T15:56:01.625Z,2820
2018-07-12T15:57:10.502Z,2800
2018-07-12T15:58:19.386Z,2730
2018-07-12T15:59:28.822Z,2645